createdAt,value
2019-03-15T00:02:05.368Z,3.30
2019-03-15T00:04:35.079Z,3.30
2019-03-15T00:07:03.813Z,3.40
2019-03-15T00:09:34.170Z,3.50
2019-03-15T00:12:04.524Z,3.70
2019-03-15T00:14:33.323Z,3.80
2019-03-15T00:17:02.187Z,3.90
2019-03-15T00:19:31.299Z,4.00
2019-03-15T00:22:00.405Z,4.00
2019-03-15T00:24:29.108Z,4.10
2019-03-15T00:26:59.986Z,4.10
2019-03-15T00:29:28.720Z,4.10
2019-03-15T00:31:57.655Z,4.10
2019-03-15T00:34:26.196Z,4.10
2019-03-15T00:36:54.851Z,4.10
2019-03-15T00:39:23.734Z,4.10
2019-03-15T00:41:52.552Z,4.00
2019-03-15T00:44:21.263Z,4.00
2019-03-15T00:46:50.311Z,4.00
2019-03-15T00:49:19.087Z,4.00
2019-03-15T00:51:47.802Z,4.00
2019-03-15T00:54:16.423Z,3.90
2019-03-15T00:56:46.342Z,3.90
2019-03-15T00:59:15.959Z,3.90
2019-03-15T01:01:46.933Z,3.90
2019-03-15T01:04:15.611Z,4.00
2019-03-15T01:06:44.287Z,4.10
2019-03-15T01:09:13.063Z,4.10
2019-03-15T01:11:41.667Z,4.20
2019-03-15T01:14:11.597Z,4.30
2019-03-15T01:16:40.339Z,4.30
2019-03-15T01:19:09.032Z,4.40
2019-03-15T01:21:37.515Z,4.40
2019-03-15T01:24:06.132Z,4.50
2019-03-15T01:26:34.850Z,4.50
2019-03-15T01:29:03.456Z,4.50
2019-03-15T01:31:32.186Z,4.50
2019-03-15T01:34:00.836Z,4.50
2019-03-15T01:36:29.869Z,4.50
2019-03-15T01:39:00.367Z,4.50
2019-03-15T01:41:30.225Z,4.50
2019-03-15T01:43:59.207Z,4.50
2019-03-15T01:46:29.121Z,4.50
2019-03-15T01:48:59.147Z,4.50
2019-03-15T01:51:27.923Z,4.50
2019-03-15T01:53:56.638Z,4.50
2019-03-15T01:56:25.969Z,4.50
2019-03-15T01:58:56.408Z,4.50
2019-03-15T02:01:25.225Z,4.50
2019-03-15T02:03:53.924Z,4.40
2019-03-15T02:06:22.590Z,4.40
2019-03-15T02:08:52.515Z,4.50
2019-03-15T02:11:21.597Z,4.50
2019-03-15T02:13:54.398Z,4.40
2019-03-15T02:16:22.592Z,4.40
2019-03-15T02:18:53.026Z,4.40
2019-03-15T02:21:21.990Z,4.40
2019-03-15T02:23:50.720Z,4.40
2019-03-15T02:26:20.978Z,4.40
2019-03-15T02:28:49.702Z,4.50
2019-03-15T02:31:19.132Z,4.50
2019-03-15T02:33:47.711Z,4.50
2019-03-15T02:36:16.531Z,4.50
2019-03-15T02:38:45.562Z,4.50
2019-03-15T02:41:14.257Z,4.50
2019-03-15T02:43:43.634Z,4.50
2019-03-15T02:46:12.439Z,4.50
2019-03-15T02:48:42.515Z,4.50
2019-03-15T02:51:11.753Z,4.50
2019-03-15T02:53:42.289Z,4.50
2019-03-15T02:56:12.524Z,4.50
2019-03-15T02:58:42.977Z,4.50
2019-03-15T03:01:11.883Z,4.50
2019-03-15T03:03:40.736Z,4.50
2019-03-15T03:06:09.404Z,4.50
2019-03-15T03:08:41.367Z,4.40
2019-03-15T03:11:09.463Z,4.30
2019-03-15T03:13:38.238Z,4.20
2019-03-15T03:16:06.841Z,4.20
2019-03-15T03:18:35.515Z,4.10
2019-03-15T03:21:05.358Z,4.10
2019-03-15T03:23:34.272Z,4.00
2019-03-15T03:26:03.261Z,4.00
2019-03-15T03:28:32.131Z,4.00
2019-03-15T03:31:00.979Z,3.90
2019-03-15T03:33:29.701Z,3.90
2019-03-15T03:35:58.461Z,3.90
2019-03-15T03:38:27.630Z,3.90
2019-03-15T03:40:56.969Z,3.90
2019-03-15T03:43:26.052Z,4.00
2019-03-15T03:45:54.883Z,4.00
2019-03-15T03:48:23.707Z,4.10
2019-03-15T03:50:52.829Z,4.20
2019-03-15T03:53:21.425Z,4.20
2019-03-15T03:55:51.232Z,4.30
2019-03-15T03:58:21.541Z,4.40
2019-03-15T04:00:51.070Z,4.50
2019-03-15T04:03:19.961Z,4.50
2019-03-15T04:05:48.615Z,4.50
2019-03-15T04:08:18.008Z,4.60
2019-03-15T04:10:46.743Z,4.50
2019-03-15T04:13:15.368Z,4.60
2019-03-15T04:15:46.758Z,4.60
2019-03-15T04:18:15.418Z,4.60
2019-03-15T04:20:44.268Z,4.70
2019-03-15T04:23:13.075Z,4.70
2019-03-15T04:25:41.824Z,4.70
2019-03-15T04:28:10.425Z,4.80
2019-03-15T04:30:39.078Z,4.80
2019-03-15T04:33:10.469Z,4.70
2019-03-15T04:35:39.171Z,4.80
2019-03-15T04:38:08.143Z,4.80
2019-03-15T04:40:37.157Z,4.80
2019-03-15T04:43:06.693Z,4.80
2019-03-15T04:45:37.049Z,4.80
2019-03-15T04:48:06.117Z,4.80
2019-03-15T04:50:35.097Z,4.80
2019-03-15T04:53:07.924Z,4.80
2019-03-15T04:55:36.626Z,4.80
2019-03-15T04:58:05.501Z,4.80
2019-03-15T05:00:34.362Z,4.80
2019-03-15T05:03:04.232Z,4.80
2019-03-15T05:05:34.355Z,4.80
2019-03-15T05:08:04.091Z,4.80
2019-03-15T05:10:33.081Z,4.70
2019-03-15T05:13:01.823Z,4.70
2019-03-15T05:15:32.140Z,4.70
2019-03-15T05:18:00.836Z,4.70
2019-03-15T05:20:29.503Z,4.60
2019-03-15T05:22:59.396Z,4.50
2019-03-15T05:25:29.877Z,4.50
2019-03-15T05:27:58.461Z,4.50
2019-03-15T05:30:27.196Z,4.50
2019-03-15T05:32:55.867Z,4.50
2019-03-15T05:35:24.636Z,4.50
2019-03-15T05:37:53.318Z,4.50
2019-03-15T05:40:22.121Z,4.50
2019-03-15T05:42:51.114Z,4.50
2019-03-15T05:45:20.043Z,4.50
2019-03-15T05:47:48.912Z,4.60
2019-03-15T05:50:17.690Z,4.50
2019-03-15T05:52:47.999Z,4.50
2019-03-15T05:55:18.365Z,4.50
2019-03-15T05:57:47.215Z,4.50
2019-03-15T06:00:17.904Z,4.50
2019-03-15T06:02:47.417Z,4.50
2019-03-15T06:05:16.548Z,4.50
2019-03-15T06:07:45.191Z,4.50
2019-03-15T06:10:15.824Z,4.50
2019-03-15T06:12:44.956Z,4.50
2019-03-15T06:15:13.628Z,4.50
2019-03-15T06:17:42.485Z,4.60
2019-03-15T06:20:13.763Z,4.60
2019-03-15T06:22:42.428Z,4.60
2019-03-15T06:25:11.688Z,4.60
2019-03-15T06:27:42.115Z,4.70
2019-03-15T06:30:16.142Z,4.70
2019-03-15T06:32:45.491Z,4.70
2019-03-15T06:35:14.769Z,4.70
2019-03-15T06:37:43.596Z,4.70
2019-03-15T06:40:14.027Z,4.70
2019-03-15T06:42:43.356Z,4.80
2019-03-15T06:45:13.391Z,4.80
2019-03-15T06:47:43.686Z,4.70
2019-03-15T06:50:15.738Z,4.80
2019-03-15T06:52:47.169Z,4.80
2019-03-15T06:55:15.759Z,4.80
2019-03-15T06:57:46.049Z,4.80
2019-03-15T07:00:16.997Z,4.90
2019-03-15T07:02:48.131Z,4.90
2019-03-15T07:05:16.920Z,4.80
2019-03-15T07:07:46.192Z,4.80
2019-03-15T07:10:15.207Z,4.90
2019-03-15T07:12:44.245Z,4.80
2019-03-15T07:15:14.224Z,4.80
2019-03-15T07:17:42.971Z,4.80
2019-03-15T07:20:15.547Z,4.90
2019-03-15T07:22:44.523Z,5.00
2019-03-15T07:25:15.118Z,5.10
2019-03-15T07:27:43.832Z,5.20
2019-03-15T07:30:16.409Z,5.20
2019-03-15T07:32:47.083Z,5.20
2019-03-15T07:35:19.297Z,5.30
2019-03-15T07:37:48.065Z,5.30
2019-03-15T07:40:16.910Z,5.30
2019-03-15T07:42:47.512Z,5.40
2019-03-15T07:45:16.409Z,5.40
2019-03-15T07:47:45.312Z,5.50
2019-03-15T07:50:16.852Z,5.50
2019-03-15T07:52:46.174Z,5.50
2019-03-15T07:55:15.503Z,5.50
2019-03-15T07:57:44.944Z,5.50
2019-03-15T08:00:16.752Z,5.60
2019-03-15T08:02:47.369Z,5.60
2019-03-15T08:05:16.430Z,5.70
2019-03-15T08:07:47.659Z,5.60
2019-03-15T08:10:16.971Z,5.70
2019-03-15T08:12:49.410Z,5.70
2019-03-15T08:15:18.767Z,5.80
2019-03-15T08:17:47.524Z,5.70
2019-03-15T08:20:17.901Z,5.70
2019-03-15T08:22:48.587Z,5.70
2019-03-15T08:25:17.176Z,5.70
2019-03-15T08:27:45.758Z,5.70
2019-03-15T08:30:16.691Z,5.80
2019-03-15T08:32:45.878Z,5.80
2019-03-15T08:35:18.013Z,5.80
2019-03-15T08:37:47.243Z,5.80
2019-03-15T08:40:16.318Z,5.90
2019-03-15T08:42:46.501Z,5.90
2019-03-15T08:45:19.432Z,5.90
2019-03-15T08:47:48.309Z,5.90
2019-03-15T08:50:24.378Z,5.90
2019-03-15T08:52:54.085Z,5.80
2019-03-15T08:55:22.468Z,5.80
2019-03-15T08:57:51.276Z,5.80
2019-03-15T09:00:20.178Z,5.80
2019-03-15T09:02:48.842Z,5.90
2019-03-15T09:05:18.359Z,5.90
2019-03-15T09:07:48.347Z,6.00
2019-03-15T09:10:23.892Z,6.10
2019-03-15T09:12:52.874Z,6.30
2019-03-15T09:15:21.577Z,6.40
2019-03-15T09:17:50.547Z,6.50
2019-03-15T09:20:19.480Z,6.40
2019-03-15T09:22:50.138Z,6.40
2019-03-15T09:25:20.614Z,6.40
2019-03-15T09:27:49.947Z,6.30
2019-03-15T09:30:23.688Z,6.20
2019-03-15T09:32:49.221Z,6.20
2019-03-15T09:35:19.344Z,6.20
2019-03-15T09:37:48.078Z,6.20
2019-03-15T09:40:18.160Z,6.10
2019-03-15T09:42:46.949Z,6.00
2019-03-15T09:45:20.961Z,6.00
2019-03-15T09:47:50.739Z,6.00
2019-03-15T09:50:33.308Z,6.20
2019-03-15T09:52:51.710Z,6.30
2019-03-15T09:55:32.423Z,6.30
2019-03-15T09:57:52.442Z,6.50
2019-03-15T10:00:22.806Z,6.40
2019-03-15T10:02:51.576Z,6.50
2019-03-15T10:17:13.304Z,6.50
2019-03-15T10:19:43.975Z,6.60
2019-03-15T10:22:13.302Z,6.60
2019-03-15T10:24:41.950Z,6.60
2019-03-15T10:27:14.947Z,6.60
2019-03-15T10:29:43.693Z,6.60
2019-03-15T10:32:13.843Z,6.70
2019-03-15T10:34:42.557Z,6.70
2019-03-15T10:37:11.369Z,6.70
2019-03-15T10:39:40.740Z,6.70
2019-03-15T10:42:11.081Z,6.70
2019-03-15T10:50:15.141Z,6.70
2019-03-15T10:52:49.292Z,6.80
2019-03-15T10:55:15.401Z,6.90
2019-03-15T10:57:44.161Z,7.20
2019-03-15T11:00:20.853Z,7.40
2019-03-15T11:02:49.901Z,7.40
2019-03-15T11:05:18.585Z,7.50
2019-03-15T11:07:47.366Z,7.50
2019-03-15T11:10:16.248Z,7.60
2019-03-15T11:12:45.038Z,7.70
2019-03-15T11:15:15.175Z,7.80
2019-03-15T11:17:43.977Z,7.90
2019-03-15T11:20:17.404Z,7.50
2019-03-15T11:22:46.247Z,7.10
2019-03-15T11:25:15.850Z,6.90
2019-03-15T11:27:44.528Z,6.70
2019-03-15T11:30:14.356Z,6.60
2019-03-15T11:32:44.420Z,6.60
2019-03-15T11:35:13.191Z,6.70
2019-03-15T11:37:42.164Z,6.90
2019-03-15T11:40:19.636Z,7.30
2019-03-15T11:42:49.400Z,7.80
2019-03-15T11:45:19.222Z,8.50
2019-03-15T11:48:02.782Z,9.00
2019-03-15T11:50:20.154Z,9.20
2019-03-15T11:52:48.847Z,9.10
2019-03-15T11:55:18.359Z,9.00
2019-03-15T11:57:47.089Z,8.90
2019-03-15T12:00:19.409Z,8.80
2019-03-15T12:02:48.038Z,8.60
2019-03-15T12:05:19.388Z,8.50
2019-03-15T12:07:51.860Z,8.40
2019-03-15T12:10:22.678Z,8.40
2019-03-15T12:12:52.749Z,8.20
2019-03-15T12:15:21.957Z,7.90
2019-03-15T12:17:50.846Z,7.90
2019-03-15T12:20:20.953Z,7.80
2019-03-15T12:22:50.088Z,7.90
2019-03-15T12:25:21.312Z,8.00
2019-03-15T12:27:51.392Z,8.10
2019-03-15T12:30:22.128Z,8.30
2019-03-15T12:32:50.908Z,8.40
2019-03-15T12:35:20.872Z,8.50
2019-03-15T12:37:49.425Z,8.40
2019-03-15T12:40:18.942Z,8.50
2019-03-15T12:42:47.602Z,8.40
2019-03-15T12:45:23.327Z,8.40
2019-03-15T12:47:52.067Z,8.60
2019-03-15T12:50:23.088Z,8.70
2019-03-15T12:52:51.783Z,8.90
2019-03-15T12:55:21.454Z,9.00
2019-03-15T12:57:50.399Z,8.90
2019-03-15T13:00:21.965Z,8.90
2019-03-15T13:02:53.625Z,8.80
2019-03-15T13:05:21.866Z,8.70
2019-03-15T13:07:51.026Z,8.50
2019-03-15T13:10:24.738Z,8.40
2019-03-15T13:12:57.087Z,8.30
2019-03-15T13:15:26.558Z,8.20
2019-03-15T13:17:55.264Z,8.00
2019-03-15T13:20:23.931Z,7.80
2019-03-15T13:22:54.901Z,7.60
2019-03-15T13:25:23.555Z,7.70
2019-03-15T13:27:52.520Z,7.90
2019-03-15T13:30:21.515Z,8.10
2019-03-15T13:32:50.135Z,8.30
2019-03-15T13:35:19.099Z,8.50
2019-03-15T13:37:48.018Z,8.60
2019-03-15T13:40:21.325Z,8.60
2019-03-15T13:42:50.194Z,8.60
2019-03-15T13:45:20.616Z,8.80
2019-03-15T13:47:51.207Z,8.90
2019-03-15T13:50:22.030Z,8.80
2019-03-15T13:52:54.587Z,8.70
2019-03-15T13:55:24.329Z,8.60
2019-03-15T13:57:55.688Z,8.60
2019-03-15T14:00:26.417Z,8.50
2019-03-15T14:02:56.680Z,8.30
2019-03-15T14:05:27.015Z,8.10
2019-03-15T14:07:56.288Z,7.60
2019-03-15T14:10:24.911Z,7.30
2019-03-15T14:12:53.795Z,7.10
2019-03-15T14:15:22.845Z,7.00
2019-03-15T14:17:52.060Z,7.00
2019-03-15T14:20:27.851Z,7.00
2019-03-15T14:22:58.314Z,7.20
2019-03-15T14:25:30.316Z,7.30
2019-03-15T14:27:59.744Z,7.30
2019-03-15T14:30:28.565Z,7.40
2019-03-15T14:32:57.411Z,7.30
2019-03-15T14:35:26.666Z,7.30
2019-03-15T14:37:57.306Z,7.40
2019-03-15T14:40:27.569Z,7.30
2019-03-15T14:42:56.788Z,7.20
2019-03-15T14:45:26.137Z,7.30
2019-03-15T14:47:56.023Z,7.30
2019-03-15T14:50:26.308Z,7.20
2019-03-15T14:52:56.277Z,7.20
2019-03-15T14:55:27.160Z,7.20
2019-03-15T14:58:03.266Z,7.20
2019-03-15T15:00:31.258Z,7.30
2019-03-15T15:03:00.692Z,7.30
2019-03-15T15:05:31.219Z,7.30
2019-03-15T15:08:02.144Z,7.30
2019-03-15T15:10:34.584Z,7.30
2019-03-15T15:13:03.475Z,7.40
2019-03-15T15:15:32.473Z,7.40
2019-03-15T15:18:03.780Z,7.40
2019-03-15T15:20:32.651Z,7.40
2019-03-15T15:23:02.939Z,7.40
2019-03-15T15:25:38.630Z,7.40
2019-03-15T15:28:07.438Z,7.40
2019-03-15T15:30:38.366Z,7.40
2019-03-15T15:33:07.202Z,7.30
2019-03-15T15:35:37.483Z,7.30
2019-03-15T15:38:11.152Z,7.40
2019-03-15T15:40:40.022Z,7.40
2019-03-15T15:43:12.405Z,7.40
2019-03-15T15:45:41.218Z,7.30
2019-03-15T15:48:14.335Z,7.30
2019-03-15T15:50:47.682Z,7.30
2019-03-15T15:53:23.288Z,7.30
2019-03-15T15:55:56.154Z,7.20
2019-03-15T15:58:33.740Z,7.20
2019-03-15T16:01:02.565Z,7.20
2019-03-15T16:03:31.383Z,7.20
2019-03-15T16:06:06.250Z,7.20
2019-03-15T16:08:36.415Z,7.20
2019-03-15T16:11:09.622Z,7.10
2019-03-15T16:13:38.885Z,7.10
2019-03-15T16:16:07.505Z,7.00
2019-03-15T16:18:37.297Z,7.00
2019-03-15T16:21:07.382Z,6.90
2019-03-15T16:23:38.762Z,6.90
2019-03-15T16:26:09.755Z,6.90
2019-03-15T16:28:40.179Z,6.80
2019-03-15T16:31:13.954Z,6.80
2019-03-15T16:33:42.932Z,6.80
2019-03-15T16:36:11.716Z,6.80
2019-03-15T16:38:43.036Z,6.70
2019-03-15T16:41:11.727Z,6.60
2019-03-15T16:43:41.205Z,6.60
2019-03-15T16:46:09.968Z,6.60
2019-03-15T16:48:39.988Z,6.60
2019-03-15T16:51:18.967Z,6.50
2019-03-15T16:53:41.352Z,6.50
2019-03-15T16:56:10.091Z,6.50
2019-03-15T16:58:45.796Z,6.50
2019-03-15T17:01:13.167Z,6.40
2019-03-15T17:03:41.847Z,6.40
2019-03-15T17:06:19.296Z,6.40
2019-03-15T17:08:51.848Z,6.40
2019-03-15T17:11:25.777Z,6.40
2019-03-15T17:13:56.888Z,6.30
2019-03-15T17:16:25.719Z,6.20
2019-03-15T17:18:57.590Z,6.20
2019-03-15T17:21:26.467Z,6.20
2019-03-15T17:23:55.473Z,6.10
2019-03-15T17:26:26.491Z,6.10
2019-03-15T17:28:59.848Z,6.10
2019-03-15T17:31:31.283Z,6.00
2019-03-15T17:34:00.021Z,6.00
2019-03-15T17:36:28.828Z,6.00
2019-03-15T17:38:58.781Z,6.00
2019-03-15T17:41:27.644Z,6.00
2019-03-15T17:43:56.929Z,6.00
2019-03-15T17:46:26.607Z,6.00
2019-03-15T17:48:55.386Z,6.00
2019-03-15T17:51:25.730Z,6.10
2019-03-15T17:53:54.503Z,6.10
2019-03-15T17:56:26.977Z,6.10
2019-03-15T17:58:56.372Z,6.10
2019-03-15T18:01:25.111Z,6.10
2019-03-15T18:03:54.834Z,6.10
2019-03-15T18:06:23.814Z,6.10
2019-03-15T18:08:53.215Z,6.10
2019-03-15T18:11:22.024Z,6.10
2019-03-15T18:13:54.254Z,6.10
2019-03-15T18:16:24.743Z,6.00
2019-03-15T18:18:53.371Z,6.00
2019-03-15T18:21:22.191Z,6.00
2019-03-15T18:23:50.890Z,6.00
2019-03-15T18:26:19.967Z,5.90
2019-03-15T18:28:48.716Z,5.90
2019-03-15T18:31:17.421Z,5.90
2019-03-15T18:33:47.821Z,5.90
2019-03-15T18:36:16.535Z,5.90
2019-03-15T18:38:46.263Z,5.90
2019-03-15T18:41:15.281Z,5.80
2019-03-15T18:43:44.002Z,5.80
2019-03-15T18:46:14.165Z,5.80
2019-03-15T18:48:42.953Z,5.80
2019-03-15T18:51:11.679Z,5.70
2019-03-15T18:53:40.313Z,5.70
2019-03-15T18:56:11.680Z,5.80
2019-03-15T18:58:40.840Z,5.80
2019-03-15T19:01:09.563Z,5.80
2019-03-15T19:03:39.805Z,5.80
2019-03-15T19:06:10.826Z,5.80
2019-03-15T19:08:39.431Z,5.80
2019-03-15T19:11:10.103Z,5.80
2019-03-15T19:13:38.923Z,5.80
2019-03-15T19:16:19.546Z,5.80
2019-03-15T19:18:39.509Z,5.80
2019-03-15T19:21:10.404Z,5.80
2019-03-15T19:23:40.739Z,5.80
2019-03-15T19:26:10.823Z,5.90
2019-03-15T19:28:40.627Z,5.90
2019-03-15T19:31:11.648Z,5.90
2019-03-15T19:33:40.961Z,5.90
2019-03-15T19:36:13.505Z,5.90
2019-03-15T19:38:43.030Z,5.90
2019-03-15T19:41:11.713Z,5.90
2019-03-15T19:43:40.424Z,5.90
2019-03-15T19:46:09.275Z,5.90
2019-03-15T19:48:37.951Z,6.00
2019-03-15T19:51:07.267Z,6.00
2019-03-15T19:53:36.106Z,6.10
2019-03-15T19:56:07.334Z,6.00
2019-03-15T19:58:36.067Z,6.00
2019-03-15T20:01:07.720Z,6.00
2019-03-15T20:03:43.928Z,5.90
2019-03-15T20:06:10.513Z,5.90
2019-03-15T20:08:39.351Z,5.90
2019-03-15T20:11:08.908Z,5.90
2019-03-15T20:13:37.726Z,5.80
2019-03-15T20:16:06.535Z,5.80
2019-03-15T20:18:37.762Z,5.80
2019-03-15T20:21:06.508Z,5.80
2019-03-15T20:23:35.095Z,5.80
2019-03-15T20:26:03.756Z,5.80
2019-03-15T20:28:49.884Z,5.80
2019-03-15T20:31:18.615Z,5.80
2019-03-15T20:33:47.264Z,5.80
2019-03-15T20:36:17.272Z,5.80
2019-03-15T20:38:46.038Z,5.70
2019-03-15T20:41:15.318Z,5.70
2019-03-15T20:43:44.031Z,5.70
2019-03-15T20:46:15.740Z,5.70
2019-03-15T20:48:43.291Z,5.70
2019-03-15T20:51:13.780Z,5.60
2019-03-15T20:53:42.712Z,5.60
2019-03-15T20:56:14.207Z,5.70
2019-03-15T20:58:42.907Z,5.60
2019-03-15T21:01:13.236Z,5.60
2019-03-15T21:03:55.159Z,5.60
2019-03-15T21:06:15.912Z,5.60
2019-03-15T21:08:45.528Z,5.60
2019-03-15T21:11:16.435Z,5.70
2019-03-15T21:13:45.070Z,5.60
2019-03-15T21:16:18.136Z,5.70
2019-03-15T21:18:45.533Z,5.60
2019-03-15T21:21:14.656Z,5.70
2019-03-15T21:23:43.498Z,5.70
2019-03-15T21:26:12.160Z,5.80
2019-03-15T21:28:44.004Z,5.80
2019-03-15T21:31:12.621Z,5.80
2019-03-15T21:33:41.477Z,5.80
2019-03-15T21:36:10.109Z,5.80
2019-03-15T21:38:48.020Z,5.80
2019-03-15T21:41:09.159Z,5.90
2019-03-15T21:43:37.878Z,5.80
2019-03-15T21:46:07.358Z,5.90
2019-03-15T21:48:36.491Z,5.90
2019-03-15T21:51:06.557Z,5.90
2019-03-15T21:53:36.884Z,5.80
2019-03-15T21:56:05.872Z,5.90
2019-03-15T21:58:35.427Z,5.90
2019-03-15T22:01:05.564Z,5.90
2019-03-15T22:03:34.592Z,5.90
2019-03-15T22:06:03.392Z,5.90
2019-03-15T22:08:33.308Z,6.00
2019-03-15T22:11:04.729Z,5.90
2019-03-15T22:13:34.190Z,5.90
2019-03-15T22:16:04.343Z,6.00
2019-03-15T22:18:34.963Z,5.90
2019-03-15T22:21:04.974Z,5.80
2019-03-15T22:23:33.798Z,5.80
2019-03-15T22:26:04.150Z,5.80
2019-03-15T22:28:34.713Z,5.90
2019-03-15T22:31:16.045Z,6.00
2019-03-15T22:33:35.821Z,6.00
2019-03-15T22:36:04.490Z,6.00
2019-03-15T22:38:33.218Z,6.00
2019-03-15T22:41:05.613Z,6.00
2019-03-15T22:43:36.969Z,6.00
2019-03-15T22:46:05.835Z,5.90
2019-03-15T22:48:35.963Z,5.90
2019-03-15T22:51:05.745Z,5.90
2019-03-15T22:53:36.159Z,5.90
2019-03-15T22:56:06.333Z,5.80
2019-03-15T22:58:36.102Z,5.90
2019-03-15T23:01:06.948Z,5.90
2019-03-15T23:03:36.032Z,5.90
2019-03-15T23:06:05.371Z,6.00
2019-03-15T23:08:35.352Z,6.00
2019-03-15T23:11:04.885Z,6.00
2019-03-15T23:13:34.233Z,6.10
2019-03-15T23:16:09.220Z,6.10
2019-03-15T23:18:38.736Z,6.00
2019-03-15T23:21:07.418Z,6.00
2019-03-15T23:23:36.147Z,5.60
2019-03-15T23:26:05.622Z,5.30
2019-03-15T23:28:34.445Z,5.10
2019-03-15T23:31:03.244Z,4.90
2019-03-15T23:33:33.057Z,4.80
2019-03-15T23:36:01.799Z,4.80
2019-03-15T23:38:31.187Z,4.70
2019-03-15T23:40:59.876Z,4.70
2019-03-15T23:43:29.451Z,4.70
2019-03-15T23:46:00.753Z,4.60
2019-03-15T23:48:29.924Z,4.60
2019-03-15T23:50:59.425Z,4.60
2019-03-15T23:53:28.421Z,4.60
2019-03-15T23:55:57.107Z,4.60
2019-03-15T23:58:25.696Z,4.50
